Andrews Air Force Base Camp Springs US
ICAO: KADW
IATA: ADW
Category: Large
Scheduled Services: No

Elevation: 280 ft
TransAlt. 18000 ft.

Airport Communications:
POTOMAC APP:119.3
ATIS:113.1
CLNC DEL:127.55
POTOMAC DEP:125.65
GND:121.8
AFRC OPS:143.8
PMSV METRO:34.46
COMD POST:141.55
PTD:139.3
TWR:118.4

KADW Zoom In..

If you have problems with the map follow the link
https://www.worldairports.se/pages/airport.php?
ICAO=KADW

Runways:

(A) RW 01L length 9318 ft width 200 ft
ILS 111.50 / hdg 10

(B) RW 01R length 9756 ft width 150 ft
ILS 110.50 / hdg 10

(C) RW 19L length 9756 ft width 150 ft
ILS 110.50 / hdg 190

(D) RW 19R length 9318 ft width 200 ft
ILS 111.50 / hdg 190

Location; KADW
Day. 14 / Time. 21.56 Zulu
* Altimeter: 30.30
* Temperature: 07° c. 44.6°f.
* Wind from: 010° Speed 05 kn.
Dewpoint: 06° c.
Visibility: 10 Statute Miles.
Clouds: Overcast 4700 ft.
Conditions: Light Rain.

KADW 142156Z AUTO 01005KT 10SM -RA OVC047 07/06 A3030 RMK AO2 DZB03E14DZB36E53RAB53 SLP270 P0000 T00740057 $


Wind From 010°
Speed 05 kn.

 
 
jpsmedia.com for Web Design worldairports.se 2018   terms of use